Time;durP1;ratioP1;P1;durP2;ratioP2;P2;SDS_P1;SDS_P2;PMS_P1;PMS_P2;Temp;Humidity;BMP_temperature;BMP_pressure;BME280_temperature;BME280_humidity;BME280_pressure;Samples;Min_cycle;Max_cycle;Signal;HPM_P1;HPM_P2
2022/06/04 00:01:55;;;;;;;6.63;4.10;;;;;;;18.60;79.67;100599.56;8263950;28;20294;-62
2022/06/04 00:05:57;;;;;;;7.65;5.20;;;;;;;18.66;78.11;100582.38;8263892;28;20125;-62
2022/06/04 00:15:34;;;;;;;9.05;4.95;;;;;;;18.60;80.44;100591.34;8260429;28;20056;-62
2022/06/04 00:18:40;;;;;;;6.20;4.97;;;;;;;18.53;80.09;100606.84;8269925;28;20563;-62
2022/06/04 00:22:40;;;;;;;6.15;5.55;;;;;;;18.46;80.43;100627.81;8257307;28;20043;-62
2022/06/04 00:26:41;;;;;;;7.88;5.63;;;;;;;18.39;80.59;100632.31;8267064;28;20030;-62
2022/06/04 00:30:41;;;;;;;4.75;4.32;;;;;;;18.41;80.13;100619.31;8268566;28;20030;-62
2022/06/04 00:34:42;;;;;;;5.32;4.93;;;;;;;18.53;79.64;100615.06;8272114;28;20045;-62
2022/06/04 00:38:44;;;;;;;6.35;5.00;;;;;;;18.57;79.26;100608.16;8269968;28;20034;-62
2022/06/04 00:42:44;;;;;;;8.50;4.85;;;;;;;18.73;77.20;100610.69;8269816;28;20059;-62
2022/06/04 00:47:07;;;;;;;5.77;4.20;;;;;;;18.84;76.00;100609.34;8270335;28;20053;-62
2022/06/04 00:51:08;;;;;;;5.10;4.60;;;;;;;18.80;76.16;100610.78;8258520;28;20270;-62
2022/06/04 00:55:09;;;;;;;6.38;5.05;;;;;;;18.69;76.27;100617.59;8264763;28;20042;-62
2022/06/04 00:59:28;;;;;;;6.45;4.63;;;;;;;18.70;76.66;100624.75;8256781;28;20490;-62
2022/06/04 01:04:08;;;;;;;5.43;4.32;;;;;;;18.69;77.12;100645.00;8249592;28;20141;-62
2022/06/04 01:08:37;;;;;;;7.35;5.40;;;;;;;18.46;79.68;100647.00;8262221;28;20034;-62
2022/06/04 01:13:03;;;;;;;5.00;4.50;;;;;;;18.44;78.93;100638.09;8267980;28;20038;-62
2022/06/04 01:17:18;;;;;;;7.90;5.07;;;;;;;18.49;77.69;100638.41;8250565;28;20056;-62
2022/06/04 01:21:47;;;;;;;5.57;4.40;;;;;;;18.46;77.62;100644.25;8262174;28;20431;-59
2022/06/04 01:30:27;;;;;;;10.00;4.75;;;;;;;18.37;77.32;100639.91;8414134;27;20426;-60
2022/06/04 01:34:37;;;;;;;5.80;4.78;;;;;;;18.35;77.41;100647.41;8410862;27;20509;-62
2022/06/04 01:39:02;;;;;;;5.72;4.60;;;;;;;18.33;77.29;100657.69;8387643;28;20489;-62
2022/06/04 01:43:04;;;;;;;6.45;4.70;;;;;;;18.25;77.79;100648.72;8393151;28;20730;-62
2022/06/04 01:47:05;;;;;;;5.97;5.00;;;;;;;18.17;77.60;100644.16;8397381;27;20413;-61
2022/06/04 01:51:09;;;;;;;5.10;4.70;;;;;;;18.13;78.00;100644.72;8382946;28;20056;-62
2022/06/04 01:55:18;;;;;;;9.55;4.47;;;;;;;18.09;77.64;100641.53;8398885;27;20501;-62
2022/06/04 01:59:34;;;;;;;5.55;4.88;;;;;;;18.06;77.67;100647.38;8380704;27;20036;-62
2022/06/04 02:07:53;;;;;;;4.85;4.45;;;;;;;17.98;77.41;100644.69;8373496;28;20420;-61
2022/06/04 02:11:55;;;;;;;8.57;4.72;;;;;;;17.97;77.58;100658.56;8361233;28;20041;-61
2022/06/04 02:16:08;;;;;;;7.10;4.28;;;;;;;17.89;77.90;100653.16;8366402;28;20037;-61
2022/06/04 02:20:09;;;;;;;6.72;4.80;;;;;;;17.84;78.22;100639.19;8364068;28;20063;-60
2022/06/04 02:24:10;;;;;;;7.82;4.65;;;;;;;17.75;78.18;100643.88;8366384;28;20044;-60
2022/06/04 02:28:11;;;;;;;6.38;4.72;;;;;;;17.68;78.53;100637.44;8368337;28;20045;-60
2022/06/04 02:32:37;;;;;;;7.45;5.10;;;;;;;17.60;78.48;100623.84;8366443;28;20041;-60
2022/06/04 02:41:02;;;;;;;6.00;4.53;;;;;;;17.50;78.47;100628.69;8413192;27;20433;-60
2022/06/04 02:45:19;;;;;;;8.43;4.78;;;;;;;17.42;78.97;100631.47;8391084;28;20033;-60
2022/06/04 02:49:45;;;;;;;5.68;4.10;;;;;;;17.37;79.68;100620.22;8393096;28;20401;-60
2022/06/04 02:53:47;;;;;;;8.27;4.25;;;;;;;17.32;79.74;100626.22;8387424;28;20025;-61
2022/06/04 02:57:52;;;;;;;5.60;4.03;;;;;;;17.24;80.28;100639.09;8382027;28;20490;-60
2022/06/04 03:01:57;;;;;;;5.78;4.50;;;;;;;16.99;81.97;100623.88;8378022;28;20509;-60
2022/06/04 03:06:01;;;;;;;7.05;4.70;;;;;;;17.06;81.45;100613.94;8383375;28;20448;-60
2022/06/04 03:10:08;;;;;;;7.80;4.75;;;;;;;17.06;81.39;100611.19;8397466;28;20048;-60
2022/06/04 03:14:08;;;;;;;8.05;4.82;;;;;;;16.79;83.13;100606.22;8402480;27;20045;-60
2022/06/04 03:18:08;;;;;;;6.20;5.60;;;;;;;16.64;84.53;100608.00;8379131;28;20503;-60
2022/06/04 03:22:09;;;;;;;5.90;5.03;;;;;;;16.36;86.33;100614.91;8376773;28;20037;-60
2022/06/04 03:26:09;;;;;;;6.55;5.47;;;;;;;16.21;87.79;100625.69;8380048;28;20044;-60
2022/06/04 03:30:10;;;;;;;7.07;5.33;;;;;;;16.05;88.86;100638.50;8382872;28;20041;-60
2022/06/04 03:34:11;;;;;;;10.38;5.72;;;;;;;16.03;88.61;100635.94;8380503;28;20267;-60
2022/06/04 03:38:12;;;;;;;10.10;6.15;;;;;;;16.07;88.87;100645.47;8378049;28;20033;-60
2022/06/04 03:42:12;;;;;;;6.80;6.05;;;;;;;16.19;87.99;100648.72;8381128;28;20116;-60
2022/06/04 03:46:13;;;;;;;7.97;5.23;;;;;;;16.44;85.58;100640.31;8376674;28;20079;-60
2022/06/04 03:50:17;;;;;;;6.35;5.18;;;;;;;16.54;85.40;100645.59;8370024;28;20264;-60
2022/06/04 03:54:52;;;;;;;8.50;4.83;;;;;;;16.56;84.48;100649.00;8349818;28;20505;-61
2022/06/04 03:58:38;;;;;;;10.02;4.75;;;;;;;16.56;84.13;100638.06;8345012;28;20347;-61
2022/06/04 04:02:40;;;;;;;6.65;4.32;;;;;;;16.62;83.93;100642.84;8371866;28;20041;-61
2022/06/04 04:06:40;;;;;;;7.15;4.85;;;;;;;16.56;84.20;100638.06;8369472;28;20037;-60
2022/06/04 04:10:42;;;;;;;8.80;5.33;;;;;;;16.59;84.53;100659.56;8372989;28;20066;-60
2022/06/04 04:14:42;;;;;;;7.43;5.22;;;;;;;16.63;83.99;100663.63;8370550;28;20803;-60
2022/06/04 04:18:43;;;;;;;9.52;5.50;;;;;;;16.57;84.60;100667.94;8390490;28;20048;-61
2022/06/04 04:22:44;;;;;;;8.18;4.88;;;;;;;16.66;84.15;100655.09;8371283;28;20036;-61
2022/06/04 04:26:44;;;;;;;9.25;5.03;;;;;;;16.67;84.36;100667.69;8374570;28;20037;-61
2022/06/04 04:30:45;;;;;;;11.07;5.68;;;;;;;16.69;84.30;100674.72;8374577;28;20049;-61
2022/06/04 04:34:45;;;;;;;6.88;5.22;;;;;;;16.69;86.04;100687.50;8374770;28;20060;-61
2022/06/04 04:38:45;;;;;;;7.03;5.47;;;;;;;16.55;86.52;100701.88;8374266;28;20060;-61
2022/06/04 04:42:48;;;;;;;8.70;5.40;;;;;;;16.40;88.61;100698.09;8374838;28;20057;-62
2022/06/04 04:46:50;;;;;;;8.80;5.20;;;;;;;16.41;88.85;100697.09;8391720;28;20320;-61
2022/06/04 04:50:51;;;;;;;6.15;5.55;;;;;;;16.58;88.25;100701.50;8371990;28;20048;-61
2022/06/04 04:54:51;;;;;;;7.05;4.85;;;;;;;16.72;86.54;100719.91;8373065;28;20025;-61
2022/06/04 04:58:51;;;;;;;8.83;5.20;;;;;;;16.79;87.13;100720.91;8371242;28;20041;-61
2022/06/04 05:02:52;;;;;;;7.60;4.82;;;;;;;17.09;86.14;100714.66;8390909;28;20704;-61
2022/06/04 05:06:52;;;;;;;6.10;4.80;;;;;;;17.23;84.11;100719.38;8374179;28;20386;-61
2022/06/04 05:10:53;;;;;;;8.93;5.07;;;;;;;17.40;83.51;100723.72;8372970;28;20284;-61
2022/06/04 05:14:53;;;;;;;7.50;5.20;;;;;;;17.53;82.38;100715.81;8369122;28;20655;-61
2022/06/04 05:18:54;;;;;;;8.73;5.07;;;;;;;17.62;81.90;100709.25;8371913;28;20043;-61
2022/06/04 05:22:54;;;;;;;7.90;5.47;;;;;;;17.68;80.66;100718.63;8371136;28;20704;-61
2022/06/04 05:26:56;;;;;;;7.18;4.70;;;;;;;17.66;80.42;100724.28;8370992;28;20068;-61
2022/06/04 05:30:56;;;;;;;6.75;4.93;;;;;;;17.85;80.07;100732.03;8371639;28;20033;-61
2022/06/04 05:34:57;;;;;;;8.37;4.70;;;;;;;18.15;79.75;100739.31;8368783;28;20052;-61
2022/06/04 05:38:57;;;;;;;9.23;4.93;;;;;;;18.32;77.14;100740.84;8363806;28;20282;-61
2022/06/04 05:42:57;;;;;;;9.70;4.83;;;;;;;18.30;77.22;100742.09;8372389;28;20306;-62
2022/06/04 05:46:58;;;;;;;9.30;4.53;;;;;;;18.13;77.93;100735.03;8373143;28;20315;-61
2022/06/04 05:50:59;;;;;;;9.98;4.97;;;;;;;18.30;77.19;100736.59;8371988;28;20382;-62
2022/06/04 05:54:59;;;;;;;9.25;4.68;;;;;;;18.32;78.18;100743.59;8371123;28;20037;-62
2022/06/04 05:59:04;;;;;;;7.53;5.03;;;;;;;18.31;79.48;100761.06;8370848;28;20039;-62
2022/06/04 06:03:05;;;;;;;7.43;4.75;;;;;;;18.27;79.73;100770.66;8370983;28;20552;-62
2022/06/04 06:07:05;;;;;;;6.63;5.05;;;;;;;18.49;79.44;100775.31;8367028;28;20412;-62
2022/06/04 06:11:08;;;;;;;14.50;5.75;;;;;;;18.67;78.47;100788.66;8367982;28;20434;-62
2022/06/04 06:15:09;;;;;;;7.20;4.70;;;;;;;18.47;76.89;100776.50;8366879;28;20051;-62
2022/06/04 06:19:10;;;;;;;7.88;5.25;;;;;;;18.62;77.01;100781.00;8372055;28;20040;-62
2022/06/04 06:23:10;;;;;;;10.60;6.00;;;;;;;18.72;77.62;100765.13;8363675;28;20057;-62
2022/06/04 06:27:11;;;;;;;12.07;5.33;;;;;;;18.82;78.30;100765.69;8371817;28;20048;-62
2022/06/04 06:31:14;;;;;;;9.23;5.78;;;;;;;19.08;77.13;100766.13;8373630;28;20274;-62
2022/06/04 06:35:14;;;;;;;10.48;4.90;;;;;;;18.92;77.75;100766.31;8373534;28;20040;-62
2022/06/04 06:39:15;;;;;;;9.30;6.13;;;;;;;18.81;76.11;100774.09;8372831;28;20051;-62
2022/06/04 06:43:16;;;;;;;7.80;6.05;;;;;;;19.36;75.61;100786.34;8372770;28;20029;-61
2022/06/04 06:47:16;;;;;;;7.57;5.40;;;;;;;19.41;75.06;100789.38;8373102;28;20124;-62
2022/06/04 06:51:22;;;;;;;9.10;5.47;;;;;;;19.29;74.88;100790.03;8372101;28;20267;-61
2022/06/04 06:55:22;;;;;;;7.22;6.03;;;;;;;19.33;74.75;100792.22;8367580;28;20511;-61
2022/06/04 06:59:25;;;;;;;10.33;5.77;;;;;;;19.37;74.61;100800.94;8371007;28;20484;-61
2022/06/04 07:03:25;;;;;;;6.65;5.35;;;;;;;19.57;74.65;100810.25;8365733;28;20283;-61
2022/06/04 07:07:25;;;;;;;8.88;5.95;;;;;;;19.69;73.96;100802.38;8366744;28;20060;-61
2022/06/04 07:11:26;;;;;;;10.32;6.60;;;;;;;19.61;74.20;100795.09;8367380;28;20036;-61
2022/06/04 07:15:27;;;;;;;7.32;5.93;;;;;;;19.63;74.14;100797.66;8355450;28;20492;-61
2022/06/04 07:19:27;;;;;;;8.98;5.80;;;;;;;19.59;74.58;100791.72;8365612;28;20044;-61
2022/06/04 07:23:28;;;;;;;17.27;6.38;;;;;;;19.65;74.83;100798.31;8346710;28;20041;-61
2022/06/04 07:27:28;;;;;;;8.57;5.82;;;;;;;19.90;73.88;100805.16;8364448;28;20033;-61
2022/06/04 07:31:29;;;;;;;8.18;6.15;;;;;;;19.99;73.84;100809.50;8369308;28;20067;-61
2022/06/04 07:35:29;;;;;;;6.53;5.93;;;;;;;19.84;73.11;100811.41;8368586;28;20040;-61
2022/06/04 07:39:30;;;;;;;12.73;6.25;;;;;;;19.92;74.05;100809.44;8368632;28;20093;-61
2022/06/04 07:43:30;;;;;;;10.63;5.87;;;;;;;20.31;72.53;100803.53;8391905;28;20054;-61
2022/06/04 07:47:31;;;;;;;10.00;6.32;;;;;;;20.74;71.31;100810.69;8363869;28;20783;-61
2022/06/04 07:51:33;;;;;;;9.13;6.63;;;;;;;20.85;71.14;100823.88;8367730;28;20045;-61
2022/06/04 07:55:38;;;;;;;9.63;5.53;;;;;;;21.04;70.27;100823.19;8369336;28;20033;-61
2022/06/04 07:59:38;;;;;;;9.10;6.75;;;;;;;20.84;71.00;100819.44;8371078;28;20059;-61
2022/06/04 08:03:38;;;;;;;9.52;6.80;;;;;;;21.06;70.45;100821.13;8368515;28;20513;-61
2022/06/04 08:07:39;;;;;;;8.63;6.05;;;;;;;21.00;70.67;100813.66;8368219;28;20060;-60
2022/06/04 08:11:40;;;;;;;8.73;5.97;;;;;;;21.22;71.38;100796.91;8366519;28;20047;-61
2022/06/04 08:15:42;;;;;;;9.38;6.32;;;;;;;21.36;68.84;100800.59;8361213;28;20119;-62
2022/06/04 08:19:43;;;;;;;9.07;5.97;;;;;;;21.51;69.41;100786.69;8368010;28;20037;-62
2022/06/04 08:23:44;;;;;;;7.25;6.18;;;;;;;21.52;68.47;100774.59;8367860;28;20045;-62
2022/06/04 08:27:45;;;;;;;9.55;6.07;;;;;;;21.38;68.58;100770.97;8366874;28;21108;-62
2022/06/04 08:31:45;;;;;;;9.07;6.43;;;;;;;21.38;69.00;100773.72;8366222;28;20037;-62
2022/06/04 08:35:46;;;;;;;9.02;6.13;;;;;;;21.64;69.01;100776.59;8366443;28;20045;-62
2022/06/04 08:39:46;;;;;;;6.38;5.40;;;;;;;21.66;70.90;100791.00;8365547;28;20124;-62
2022/06/04 08:44:07;;;;;;;6.43;5.67;;;;;;;22.28;68.42;100793.53;8364164;28;20067;-62
2022/06/04 08:48:16;;;;;;;7.35;6.13;;;;;;;23.02;66.89;100804.16;8363957;28;20325;-62
2022/06/04 08:52:22;;;;;;;8.32;6.13;;;;;;;23.43;64.95;100797.53;8361101;28;20125;-63
2022/06/04 08:57:36;;;;;;;7.55;6.40;;;;;;;23.79;65.62;100803.34;8349477;28;20106;-60
2022/06/04 09:00:54;;;;;;;10.50;6.35;;;;;;;23.74;62.85;100812.28;8345326;28;20091;-61
2022/06/04 09:05:35;;;;;;;8.52;6.43;;;;;;;23.40;65.02;100825.56;8347276;28;20040;-61
2022/06/04 09:09:46;;;;;;;7.20;6.53;;;;;;;23.14;64.75;100838.31;8358367;28;20041;-61
2022/06/04 09:14:02;;;;;;;8.10;6.00;;;;;;;23.66;66.08;100842.06;8351034;28;20056;-60
2022/06/04 09:18:16;;;;;;;7.07;6.20;;;;;;;23.52;65.34;100856.97;8354053;28;20535;-61
2022/06/04 09:22:21;;;;;;;8.10;6.00;;;;;;;23.66;66.93;100859.47;8373668;28;20072;-60
2022/06/04 09:26:42;;;;;;;8.73;6.10;;;;;;;23.46;66.95;100864.22;8362920;28;20040;-60
2022/06/04 09:30:55;;;;;;;10.88;6.60;;;;;;;23.18;66.39;100861.66;8357986;28;20072;-60
2022/06/04 09:34:55;;;;;;;8.32;7.30;;;;;;;23.33;69.11;100869.75;8362829;28;20504;-61
2022/06/04 09:39:02;;;;;;;10.10;7.65;;;;;;;22.94;66.65;100856.78;8361947;28;20462;-61
2022/06/04 09:43:07;;;;;;;10.52;7.22;;;;;;;22.78;67.62;100848.94;8346159;28;20109;-61
2022/06/04 09:51:25;;;;;;;7.70;6.82;;;;;;;23.09;66.51;100835.34;8404067;27;20572;-60
2022/06/04 09:55:26;;;;;;;9.75;7.70;;;;;;;23.16;65.27;100852.75;8316942;28;20057;-60
2022/06/04 09:59:29;;;;;;;9.75;7.18;;;;;;;24.14;65.89;100846.13;8348122;28;20037;-61
2022/06/04 10:03:33;;;;;;;7.85;6.30;;;;;;;25.60;60.89;100858.41;8359637;28;20037;-61
2022/06/04 10:07:37;;;;;;;7.63;6.82;;;;;;;26.45;58.38;100844.31;8355971;28;20114;-61
2022/06/04 10:11:56;;;;;;;7.55;6.53;;;;;;;26.29;58.11;100841.38;8353841;28;20041;-61
2022/06/04 10:15:57;;;;;;;6.88;6.15;;;;;;;27.53;56.58;100853.22;8338372;28;20090;-61
2022/06/04 10:19:57;;;;;;;7.95;7.20;;;;;;;28.06;55.09;100863.03;8340907;28;20040;-61
2022/06/04 10:23:59;;;;;;;6.47;5.50;;;;;;;28.62;53.34;100862.25;8336473;28;20555;-61
2022/06/04 10:28:26;;;;;;;8.70;6.10;;;;;;;27.43;55.28;100866.84;8349927;28;20045;-61
2022/06/04 10:32:54;;;;;;;7.80;6.63;;;;;;;26.55;57.21;100861.22;8348581;28;20497;-61
2022/06/04 10:37:35;;;;;;;8.23;5.70;;;;;;;26.51;57.63;100865.56;8345876;28;20039;-61
2022/06/04 10:41:53;;;;;;;6.25;5.65;;;;;;;26.83;57.98;100847.59;8354664;28;20425;-61
2022/06/04 10:46:17;;;;;;;10.45;6.65;;;;;;;27.91;56.30;100856.31;8354122;28;20044;-61
2022/06/04 10:50:28;;;;;;;8.52;5.95;;;;;;;29.28;53.78;100853.13;8348002;28;20490;-61
2022/06/04 10:54:39;;;;;;;10.65;5.63;;;;;;;29.11;53.61;100855.06;8332735;28;20037;-61
2022/06/04 10:58:46;;;;;;;7.18;6.20;;;;;;;29.86;52.40;100848.72;8347014;28;20037;-62
2022/06/04 11:02:56;;;;;;;9.63;7.20;;;;;;;30.26;51.95;100852.06;8300602;28;20566;-61
2022/06/04 11:07:04;;;;;;;8.57;7.78;;;;;;;29.11;52.33;100841.97;8330748;28;20720;-61
2022/06/04 11:11:13;;;;;;;9.68;7.65;;;;;;;30.12;51.36;100845.16;8329352;28;20049;-61
2022/06/04 11:15:20;;;;;;;8.82;5.55;;;;;;;30.94;50.38;100843.00;8314132;28;20053;-61
2022/06/04 11:19:28;;;;;;;7.53;6.78;;;;;;;32.62;48.31;100844.56;8304093;28;20045;-61
2022/06/04 11:24:08;;;;;;;8.32;5.38;;;;;;;33.05;47.07;100844.06;8348581;28;20054;-60
2022/06/04 11:28:12;;;;;;;7.22;4.85;;;;;;;31.92;50.30;100850.72;8316058;28;20510;-61
2022/06/04 11:32:22;;;;;;;6.22;5.63;;;;;;;31.76;48.97;100860.13;8331228;28;20088;-60
2022/06/04 11:36:36;;;;;;;9.73;5.82;;;;;;;30.13;51.27;100857.97;8347461;28;20045;-60
2022/06/04 11:40:50;;;;;;;7.50;6.78;;;;;;;30.00;52.02;100857.53;8327151;28;20462;-60
2022/06/04 11:45:19;;;;;;;7.22;6.15;;;;;;;29.83;52.79;100862.34;8306641;28;20034;-60
2022/06/04 11:53:50;;;;;;;6.85;6.13;;;;;;;29.59;53.53;100844.97;8404034;27;20434;-60
2022/06/04 11:58:18;;;;;;;9.18;7.40;;;;;;;29.17;54.20;100848.47;8389822;28;20110;-59
2022/06/04 12:02:29;;;;;;;8.85;6.85;;;;;;;28.36;55.80;100837.78;8386728;28;20051;-59
2022/06/04 12:06:54;;;;;;;7.93;6.40;;;;;;;29.06;55.33;100833.53;8407257;28;20032;-59
2022/06/04 12:11:35;;;;;;;12.15;7.18;;;;;;;27.54;59.06;100824.34;8369750;28;20056;-59
2022/06/04 12:15:44;;;;;;;8.70;6.53;;;;;;;26.61;60.17;100823.38;8385771;28;20061;-60
2022/06/04 12:24:37;;;;;;;8.52;7.30;;;;;;;26.26;63.22;100814.94;8387179;28;20092;-60
2022/06/04 12:28:42;;;;;;;10.05;6.40;;;;;;;26.47;62.62;100814.41;8386394;28;20059;-61
2022/06/04 12:32:44;;;;;;;9.10;5.75;;;;;;;26.63;62.76;100805.41;8390490;28;20061;-60
2022/06/04 12:36:50;;;;;;;7.82;6.47;;;;;;;26.57;61.94;100816.63;8392073;28;20047;-60
2022/06/04 12:41:03;;;;;;;10.40;7.63;;;;;;;26.36;61.19;100811.59;8402866;28;20106;-60
2022/06/04 12:45:33;;;;;;;10.50;7.93;;;;;;;26.15;62.15;100803.81;8397099;28;20101;-60
2022/06/04 12:49:47;;;;;;;9.68;7.00;;;;;;;26.46;62.22;100804.41;8384107;28;20344;-60
2022/06/04 12:53:53;;;;;;;9.13;6.82;;;;;;;26.21;63.82;100809.25;8385209;28;20548;-61
2022/06/04 12:58:01;;;;;;;6.97;6.28;;;;;;;26.53;63.41;100796.81;8391540;28;20075;-61
2022/06/04 13:02:02;;;;;;;7.97;7.18;;;;;;;26.13;63.65;100795.72;8374101;28;20420;-61
2022/06/04 13:10:40;;;;;;;9.75;7.00;;;;;;;26.21;62.89;100792.63;8373025;27;20409;-59
2022/06/04 13:14:48;;;;;;;9.05;7.72;;;;;;;26.19;65.53;100794.78;8360045;28;20037;-59
2022/06/04 13:19:15;;;;;;;6.70;5.93;;;;;;;26.51;63.51;100799.00;8362645;28;20041;-59
2022/06/04 13:23:45;;;;;;;7.65;6.80;;;;;;;26.63;65.05;100791.56;8360774;28;20040;-60
2022/06/04 13:27:52;;;;;;;7.32;5.68;;;;;;;26.36;62.31;100800.50;8358557;28;20048;-59
2022/06/04 13:31:59;;;;;;;6.60;5.95;;;;;;;26.51;62.62;100793.44;8359533;28;20037;-60
2022/06/04 13:36:00;;;;;;;8.45;6.15;;;;;;;26.32;61.77;100793.75;8361982;28;20061;-59
2022/06/04 13:40:03;;;;;;;7.05;6.03;;;;;;;26.64;62.91;100784.94;8364351;28;20040;-59
2022/06/04 13:44:05;;;;;;;6.40;5.28;;;;;;;26.57;62.10;100777.78;8357507;28;20517;-59
2022/06/04 13:48:23;;;;;;;7.32;5.30;;;;;;;26.68;62.24;100775.03;8364392;28;20037;-59
2022/06/04 13:52:27;;;;;;;6.32;5.60;;;;;;;26.59;61.13;100779.22;8353647;28;20068;-60
2022/06/04 13:56:42;;;;;;;9.23;5.63;;;;;;;26.60;62.32;100780.91;8364447;28;20079;-60
2022/06/04 14:00:47;;;;;;;9.90;5.82;;;;;;;26.55;62.20;100783.56;8367419;28;20033;-60
2022/06/04 14:05:53;;;;;;;5.13;4.68;;;;;;;26.62;62.39;100777.91;8366424;28;20037;-59
2022/06/04 14:09:22;;;;;;;7.50;5.75;;;;;;;26.51;62.11;100775.94;8364302;28;20038;-60
2022/06/04 14:18:28;;;;;;;6.85;5.40;;;;;;;26.70;62.56;100770.13;8351667;27;20429;-60
2022/06/04 14:23:08;;;;;;;6.22;5.25;;;;;;;26.93;61.31;100773.97;8332769;28;20073;-60
2022/06/04 14:27:22;;;;;;;7.00;6.05;;;;;;;26.81;60.83;100776.75;8329278;28;20052;-60
2022/06/04 14:32:02;;;;;;;10.18;5.45;;;;;;;27.06;61.17;100779.28;8340968;28;20136;-60
2022/06/04 14:36:06;;;;;;;6.20;5.22;;;;;;;27.01;60.48;100765.31;8328082;28;20045;-60
2022/06/04 14:40:07;;;;;;;7.60;5.68;;;;;;;27.00;62.91;100755.28;8329035;28;20041;-60
2022/06/04 14:44:38;;;;;;;5.97;5.35;;;;;;;27.27;61.11;100754.56;8329248;28;20042;-60
2022/06/04 14:52:58;;;;;;;6.22;5.63;;;;;;;27.36;60.05;100746.69;8346248;27;20435;-61
2022/06/04 14:57:25;;;;;;;7.20;5.22;;;;;;;27.29;60.41;100746.00;8345080;28;20131;-60
2022/06/04 15:05:59;;;;;;;7.70;5.38;;;;;;;27.24;62.19;100741.19;8402216;27;20452;-60
2022/06/04 15:15:10;;;;;;;7.72;5.38;;;;;;;27.55;61.00;100721.28;8408230;27;20522;-58
2022/06/04 15:19:50;;;;;;;9.88;5.40;;;;;;;27.40;60.67;100726.53;8407487;28;20048;-59
2022/06/04 15:24:30;;;;;;;7.13;5.43;;;;;;;27.07;61.60;100714.38;8383241;28;20064;-59
2022/06/04 15:34:12;;;;;;;5.05;4.65;;;;;;;27.38;62.34;100695.38;8380229;28;20041;-60
2022/06/04 15:38:05;;;;;;;9.15;5.60;;;;;;;27.44;61.38;100718.56;8386475;28;20110;-60
2022/06/04 15:46:22;;;;;;;5.47;4.97;;;;;;;27.51;61.08;100677.59;8329950;27;20402;-59
2022/06/04 15:55:24;;;;;;;9.20;5.75;;;;;;;27.57;60.70;100682.16;8328817;28;20049;-59
2022/06/04 15:59:18;;;;;;;11.52;6.13;;;;;;;27.50;60.99;100670.34;8332865;28;20037;-59
2022/06/04 16:03:27;;;;;;;6.50;5.20;;;;;;;27.46;60.63;100677.47;8334770;28;20069;-58
2022/06/04 16:07:49;;;;;;;6.05;4.90;;;;;;;27.56;59.37;100683.22;8337808;28;20044;-59
2022/06/04 16:16:41;;;;;;;5.85;5.13;;;;;;;27.45;60.69;100679.44;8340633;27;20385;-59
2022/06/04 16:20:47;;;;;;;8.68;5.80;;;;;;;27.49;61.88;100685.31;8326537;28;20042;-59
2022/06/04 16:25:17;;;;;;;7.32;4.85;;;;;;;27.56;61.90;100697.13;8319665;28;20038;-59
2022/06/04 16:29:25;;;;;;;6.10;5.13;;;;;;;27.59;61.39;100691.06;8319924;28;20502;-59
2022/06/04 16:33:26;;;;;;;4.85;4.40;;;;;;;27.60;60.41;100701.09;8317951;28;20049;-60
2022/06/04 16:37:30;;;;;;;5.18;4.78;;;;;;;27.51;60.29;100699.81;8323680;28;20136;-59
2022/06/04 16:42:07;;;;;;;4.82;4.45;;;;;;;27.50;60.26;100689.81;8319000;28;20037;-60
2022/06/04 16:45:57;;;;;;;6.53;4.70;;;;;;;27.44;60.04;100693.56;8319517;28;20064;-59
2022/06/04 16:49:59;;;;;;;6.40;4.35;;;;;;;27.23;60.20;100685.84;8319857;28;20029;-60
2022/06/04 16:53:59;;;;;;;4.78;4.38;;;;;;;27.19;61.42;100687.41;8319898;28;20042;-59
2022/06/04 16:58:01;;;;;;;5.43;4.93;;;;;;;27.03;60.92;100679.84;8318388;28;20033;-59
2022/06/04 17:02:32;;;;;;;4.28;3.97;;;;;;;26.94;61.75;100679.38;8323656;28;20083;-59
2022/06/04 17:06:57;;;;;;;5.13;4.63;;;;;;;26.98;62.05;100671.41;8314161;28;20052;-59
2022/06/04 17:11:12;;;;;;;8.88;4.68;;;;;;;27.13;60.76;100671.72;8325383;28;20497;-61
2022/06/04 17:15:40;;;;;;;4.70;4.20;;;;;;;27.24;59.40;100671.75;8324341;28;20033;-59
2022/06/04 17:20:06;;;;;;;4.53;4.13;;;;;;;27.19;60.74;100670.75;8349640;28;20335;-59
2022/06/04 17:24:35;;;;;;;4.60;4.20;;;;;;;27.16;61.87;100662.91;8319406;28;20845;-59
2022/06/04 17:33:21;;;;;;;5.85;4.18;;;;;;;27.18;61.53;100660.75;8413712;27;20456;-58
2022/06/04 17:37:52;;;;;;;4.53;4.13;;;;;;;27.16;62.10;100657.34;8419085;28;20040;-59
2022/06/04 17:41:55;;;;;;;4.00;3.70;;;;;;;26.98;62.39;100661.13;8418209;28;20032;-59
2022/06/04 17:45:55;;;;;;;4.00;3.67;;;;;;;26.78;63.31;100661.53;8411642;28;20087;-59
2022/06/04 17:49:56;;;;;;;5.07;4.50;;;;;;;26.62;64.84;100666.94;8357007;28;20037;-60
2022/06/04 17:53:57;;;;;;;4.55;4.15;;;;;;;26.59;63.89;100661.88;8348650;28;20284;-59
2022/06/04 17:57:58;;;;;;;4.57;4.25;;;;;;;26.49;64.61;100659.69;8355714;28;20045;-59
2022/06/04 18:01:59;;;;;;;4.63;4.22;;;;;;;26.39;64.77;100662.22;8354430;28;20044;-59
2022/06/04 18:06:00;;;;;;;6.93;4.35;;;;;;;26.42;64.32;100661.75;8353545;28;20063;-59
2022/06/04 18:10:00;;;;;;;5.43;4.03;;;;;;;26.45;64.27;100664.03;8353954;28;20033;-59
2022/06/04 18:14:00;;;;;;;4.15;3.78;;;;;;;26.36;65.89;100667.41;8350613;28;20032;-60
2022/06/04 18:18:01;;;;;;;4.00;3.70;;;;;;;26.20;66.96;100663.38;8356996;28;20037;-60
2022/06/04 18:22:02;;;;;;;5.93;4.07;;;;;;;26.22;65.64;100666.78;8354044;28;20291;-60
2022/06/04 18:26:05;;;;;;;5.13;3.88;;;;;;;26.02;66.76;100666.28;8353072;28;20124;-60
2022/06/04 18:30:06;;;;;;;4.15;3.72;;;;;;;26.00;67.13;100650.94;8352596;28;20041;-60
2022/06/04 18:34:07;;;;;;;6.35;3.92;;;;;;;25.94;66.92;100658.25;8351843;28;20037;-60
2022/06/04 18:38:07;;;;;;;4.07;3.67;;;;;;;25.90;65.51;100668.13;8350707;28;20044;-59
2022/06/04 18:55:12;;;;;;;6.00;3.08;;;;;;;25.46;63.05;100678.78;8329448;28;20034;-60
2022/06/04 18:59:13;;;;;;;3.80;2.97;;;;;;;25.37;63.36;100680.19;8341922;28;20557;-60
2022/06/04 19:03:14;;;;;;;4.10;2.83;;;;;;;25.37;63.78;100689.31;8332832;28;20045;-60
2022/06/04 19:08:16;;;;;;;3.75;3.25;;;;;;;25.21;64.25;100689.91;8329177;28;20041;-60
2022/06/04 19:15:55;;;;;;;5.45;3.00;;;;;;;24.97;64.74;100693.59;8319951;28;20037;-61
2022/06/04 19:24:49;;;;;;;5.43;2.70;;;;;;;24.61;65.20;100690.78;8326331;28;20048;-60
2022/06/04 19:28:38;;;;;;;5.90;3.15;;;;;;;24.54;65.57;100692.75;8317050;28;20049;-60
2022/06/04 19:32:38;;;;;;;3.45;2.83;;;;;;;24.46;65.71;100702.16;8323050;28;20046;-60
2022/06/04 19:36:39;;;;;;;4.20;2.90;;;;;;;24.28;66.42;100706.81;8325500;28;20045;-60
2022/06/04 19:40:39;;;;;;;6.45;3.28;;;;;;;24.24;65.86;100706.41;8326643;28;20043;-60
2022/06/04 19:44:40;;;;;;;3.20;2.90;;;;;;;24.14;66.24;100705.19;8329235;28;20076;-61
2022/06/04 19:48:41;;;;;;;3.53;3.22;;;;;;;24.00;66.80;100690.63;8328712;28;20490;-61
2022/06/04 19:57:02;;;;;;;3.85;2.90;;;;;;;23.96;66.22;100707.88;8326192;28;20037;-59
2022/06/04 20:01:02;;;;;;;3.03;2.67;;;;;;;23.86;66.87;100715.78;8330528;28;20040;-60
2022/06/04 20:05:05;;;;;;;4.53;2.90;;;;;;;23.77;67.17;100706.06;8319091;28;20033;-60
2022/06/04 20:09:05;;;;;;;6.82;3.35;;;;;;;23.68;67.15;100712.91;8326515;28;20276;-60
2022/06/04 20:13:06;;;;;;;4.70;2.95;;;;;;;23.60;67.17;100705.72;8321606;28;20761;-60
2022/06/04 20:17:07;;;;;;;3.78;3.38;;;;;;;23.56;67.17;100706.38;8316496;28;20038;-60
2022/06/04 20:21:09;;;;;;;3.22;2.78;;;;;;;23.52;67.30;100713.41;8326037;28;20508;-60
2022/06/04 20:25:10;;;;;;;3.40;2.53;;;;;;;23.54;67.33;100700.25;8322139;28;20034;-61
2022/06/04 20:29:11;;;;;;;3.00;2.70;;;;;;;23.49;67.25;100702.81;8320655;28;20044;-60
2022/06/04 20:33:11;;;;;;;4.13;3.30;;;;;;;23.47;67.01;100707.69;8319199;28;20088;-61
2022/06/04 20:37:12;;;;;;;4.80;3.42;;;;;;;23.35;67.61;100702.03;8321956;28;20310;-61
2022/06/04 20:41:16;;;;;;;3.87;3.00;;;;;;;23.28;67.93;100706.72;8320799;28;20494;-60
2022/06/04 20:45:20;;;;;;;4.80;2.80;;;;;;;23.16;68.50;100706.53;8329569;28;20264;-60
2022/06/04 20:49:20;;;;;;;3.72;3.08;;;;;;;23.09;68.21;100707.63;8348231;28;20025;-60
2022/06/04 20:53:21;;;;;;;4.63;3.57;;;;;;;22.93;69.43;100697.03;8335129;28;20045;-60